sensor_id;sensor_type;location;lat;lon;timestamp;P1;durP1;ratioP1;P2;durP2;ratioP2
46078;SDS011;31820;51.880;-0.518;2022-08-14T00:01:05;2.40;;;1.20;;
46078;SDS011;31820;51.880;-0.518;2022-08-14T00:03:31;2.92;;;1.20;;
46078;SDS011;31820;51.880;-0.518;2022-08-14T00:05:58;2.63;;;1.40;;
46078;SDS011;31820;51.880;-0.518;2022-08-14T00:08:25;3.15;;;1.30;;
46078;SDS011;31820;51.880;-0.518;2022-08-14T00:10:51;2.70;;;1.20;;
46078;SDS011;31820;51.880;-0.518;2022-08-14T00:13:18;3.35;;;1.30;;
46078;SDS011;31820;51.880;-0.518;2022-08-14T00:15:46;4.53;;;0.90;;
46078;SDS011;31820;51.880;-0.518;2022-08-14T00:18:15;3.70;;;1.20;;
46078;SDS011;31820;51.880;-0.518;2022-08-14T00:20:46;3.47;;;1.38;;
46078;SDS011;31820;51.880;-0.518;2022-08-14T00:23:12;1.65;;;1.00;;
46078;SDS011;31820;51.880;-0.518;2022-08-14T00:25:39;6.50;;;1.80;;
46078;SDS011;31820;51.880;-0.518;2022-08-14T00:28:07;2.23;;;1.50;;
46078;SDS011;31820;51.880;-0.518;2022-08-14T00:30:34;5.18;;;1.40;;
46078;SDS011;31820;51.880;-0.518;2022-08-14T00:35:29;3.65;;;1.38;;
46078;SDS011;31820;51.880;-0.518;2022-08-14T00:37:55;2.45;;;1.30;;
46078;SDS011;31820;51.880;-0.518;2022-08-14T00:40:21;3.55;;;1.50;;
46078;SDS011;31820;51.880;-0.518;2022-08-14T00:42:47;3.35;;;1.42;;
46078;SDS011;31820;51.880;-0.518;2022-08-14T00:45:13;3.47;;;1.48;;
46078;SDS011;31820;51.880;-0.518;2022-08-14T00:47:39;3.17;;;1.33;;
46078;SDS011;31820;51.880;-0.518;2022-08-14T00:50:07;2.70;;;1.85;;
46078;SDS011;31820;51.880;-0.518;2022-08-14T00:52:34;4.85;;;1.63;;
46078;SDS011;31820;51.880;-0.518;2022-08-14T00:55:00;3.92;;;1.77;;
46078;SDS011;31820;51.880;-0.518;2022-08-14T00:57:31;2.53;;;1.70;;
46078;SDS011;31820;51.880;-0.518;2022-08-14T00:59:58;2.47;;;1.70;;
46078;SDS011;31820;51.880;-0.518;2022-08-14T01:02:27;5.80;;;2.15;;
46078;SDS011;31820;51.880;-0.518;2022-08-14T01:04:55;6.07;;;1.92;;
46078;SDS011;31820;51.880;-0.518;2022-08-14T01:07:24;3.28;;;1.90;;
46078;SDS011;31820;51.880;-0.518;2022-08-14T01:09:54;3.00;;;1.63;;
46078;SDS011;31820;51.880;-0.518;2022-08-14T01:12:23;4.22;;;2.03;;
46078;SDS011;31820;51.880;-0.518;2022-08-14T01:14:49;2.38;;;1.80;;
46078;SDS011;31820;51.880;-0.518;2022-08-14T01:19:42;4.97;;;2.13;;
46078;SDS011;31820;51.880;-0.518;2022-08-14T01:22:26;4.03;;;1.80;;
46078;SDS011;31820;51.880;-0.518;2022-08-14T01:24:52;3.58;;;2.05;;
46078;SDS011;31820;51.880;-0.518;2022-08-14T01:27:19;2.95;;;1.70;;
46078;SDS011;31820;51.880;-0.518;2022-08-14T01:29:47;4.90;;;2.10;;
46078;SDS011;31820;51.880;-0.518;2022-08-14T01:32:18;4.20;;;2.55;;
46078;SDS011;31820;51.880;-0.518;2022-08-14T01:34:48;5.20;;;1.95;;
46078;SDS011;31820;51.880;-0.518;2022-08-14T01:37:19;4.35;;;1.90;;
46078;SDS011;31820;51.880;-0.518;2022-08-14T01:39:52;3.30;;;2.00;;
46078;SDS011;31820;51.880;-0.518;2022-08-14T01:42:18;1.80;;;1.42;;
46078;SDS011;31820;51.880;-0.518;2022-08-14T01:44:44;6.32;;;2.10;;
46078;SDS011;31820;51.880;-0.518;2022-08-14T01:47:19;3.65;;;2.00;;
46078;SDS011;31820;51.880;-0.518;2022-08-14T01:49:45;4.28;;;2.20;;
46078;SDS011;31820;51.880;-0.518;2022-08-14T01:52:10;5.25;;;1.98;;
46078;SDS011;31820;51.880;-0.518;2022-08-14T01:54:37;5.22;;;1.98;;
46078;SDS011;31820;51.880;-0.518;2022-08-14T01:57:02;2.78;;;1.92;;
46078;SDS011;31820;51.880;-0.518;2022-08-14T01:59:29;2.53;;;1.52;;
46078;SDS011;31820;51.880;-0.518;2022-08-14T02:01:58;4.47;;;1.90;;
46078;SDS011;31820;51.880;-0.518;2022-08-14T02:04:27;3.15;;;1.60;;
46078;SDS011;31820;51.880;-0.518;2022-08-14T02:06:55;4.32;;;2.00;;
46078;SDS011;31820;51.880;-0.518;2022-08-14T02:09:21;4.43;;;1.83;;
46078;SDS011;31820;51.880;-0.518;2022-08-14T02:11:48;2.47;;;1.60;;
46078;SDS011;31820;51.880;-0.518;2022-08-14T02:14:14;4.65;;;1.90;;
46078;SDS011;31820;51.880;-0.518;2022-08-14T02:16:46;2.40;;;1.65;;
46078;SDS011;31820;51.880;-0.518;2022-08-14T02:19:18;3.63;;;1.95;;
46078;SDS011;31820;51.880;-0.518;2022-08-14T02:21:47;3.40;;;2.05;;
46078;SDS011;31820;51.880;-0.518;2022-08-14T02:24:15;3.15;;;1.80;;
46078;SDS011;31820;51.880;-0.518;2022-08-14T02:26:44;2.35;;;1.42;;
46078;SDS011;31820;51.880;-0.518;2022-08-14T02:29:16;3.40;;;1.70;;
46078;SDS011;31820;51.880;-0.518;2022-08-14T02:31:45;3.72;;;1.60;;
46078;SDS011;31820;51.880;-0.518;2022-08-14T02:34:15;2.72;;;1.80;;
46078;SDS011;31820;51.880;-0.518;2022-08-14T02:36:55;3.30;;;1.90;;
46078;SDS011;31820;51.880;-0.518;2022-08-14T02:39:26;4.00;;;1.85;;
46078;SDS011;31820;51.880;-0.518;2022-08-14T02:41:53;2.50;;;1.48;;
46078;SDS011;31820;51.880;-0.518;2022-08-14T02:44:18;4.35;;;1.58;;
46078;SDS011;31820;51.880;-0.518;2022-08-14T02:46:47;3.05;;;1.80;;
46078;SDS011;31820;51.880;-0.518;2022-08-14T02:49:14;1.83;;;1.40;;
46078;SDS011;31820;51.880;-0.518;2022-08-14T02:51:40;3.67;;;1.52;;
46078;SDS011;31820;51.880;-0.518;2022-08-14T02:54:06;4.97;;;1.70;;
46078;SDS011;31820;51.880;-0.518;2022-08-14T02:56:34;3.55;;;1.27;;
46078;SDS011;31820;51.880;-0.518;2022-08-14T02:59:02;2.40;;;1.33;;
46078;SDS011;31820;51.880;-0.518;2022-08-14T03:01:29;2.22;;;1.23;;
46078;SDS011;31820;51.880;-0.518;2022-08-14T03:03:55;2.50;;;1.40;;
46078;SDS011;31820;51.880;-0.518;2022-08-14T03:06:20;2.33;;;1.40;;
46078;SDS011;31820;51.880;-0.518;2022-08-14T03:08:48;3.72;;;1.38;;
46078;SDS011;31820;51.880;-0.518;2022-08-14T03:11:14;2.20;;;1.25;;
46078;SDS011;31820;51.880;-0.518;2022-08-14T03:13:43;1.73;;;1.00;;
46078;SDS011;31820;51.880;-0.518;2022-08-14T03:16:12;1.80;;;1.15;;
46078;SDS011;31820;51.880;-0.518;2022-08-14T03:18:40;7.50;;;1.95;;
46078;SDS011;31820;51.880;-0.518;2022-08-14T03:21:08;2.15;;;1.00;;
46078;SDS011;31820;51.880;-0.518;2022-08-14T03:23:40;3.38;;;1.27;;
46078;SDS011;31820;51.880;-0.518;2022-08-14T03:26:08;3.05;;;1.20;;
46078;SDS011;31820;51.880;-0.518;2022-08-14T03:28:37;3.65;;;1.20;;
46078;SDS011;31820;51.880;-0.518;2022-08-14T03:31:04;2.15;;;1.35;;
46078;SDS011;31820;51.880;-0.518;2022-08-14T03:33:31;3.53;;;1.40;;
46078;SDS011;31820;51.880;-0.518;2022-08-14T03:35:56;2.10;;;1.50;;
46078;SDS011;31820;51.880;-0.518;2022-08-14T03:38:23;1.38;;;1.02;;
46078;SDS011;31820;51.880;-0.518;2022-08-14T03:40:49;1.52;;;1.20;;
46078;SDS011;31820;51.880;-0.518;2022-08-14T03:43:15;1.85;;;1.00;;
46078;SDS011;31820;51.880;-0.518;2022-08-14T03:45:41;1.55;;;1.10;;
46078;SDS011;31820;51.880;-0.518;2022-08-14T03:48:15;3.03;;;1.20;;
46078;SDS011;31820;51.880;-0.518;2022-08-14T03:50:46;1.67;;;1.15;;
46078;SDS011;31820;51.880;-0.518;2022-08-14T03:53:16;1.40;;;1.15;;
46078;SDS011;31820;51.880;-0.518;2022-08-14T03:55:43;2.95;;;1.27;;
46078;SDS011;31820;51.880;-0.518;2022-08-14T03:58:09;1.75;;;1.13;;
46078;SDS011;31820;51.880;-0.518;2022-08-14T04:00:35;3.55;;;1.25;;
46078;SDS011;31820;51.880;-0.518;2022-08-14T04:03:02;3.03;;;1.40;;
46078;SDS011;31820;51.880;-0.518;2022-08-14T04:05:30;3.20;;;1.48;;
46078;SDS011;31820;51.880;-0.518;2022-08-14T04:07:56;2.53;;;1.20;;
46078;SDS011;31820;51.880;-0.518;2022-08-14T04:10:22;3.20;;;1.20;;
46078;SDS011;31820;51.880;-0.518;2022-08-14T04:12:48;1.40;;;0.90;;
46078;SDS011;31820;51.880;-0.518;2022-08-14T04:15:14;1.52;;;0.95;;
46078;SDS011;31820;51.880;-0.518;2022-08-14T04:17:42;2.10;;;1.23;;
46078;SDS011;31820;51.880;-0.518;2022-08-14T04:20:08;4.80;;;1.40;;
46078;SDS011;31820;51.880;-0.518;2022-08-14T04:22:34;2.40;;;1.20;;
46078;SDS011;31820;51.880;-0.518;2022-08-14T04:25:00;3.78;;;1.45;;
46078;SDS011;31820;51.880;-0.518;2022-08-14T04:27:26;1.95;;;1.35;;
46078;SDS011;31820;51.880;-0.518;2022-08-14T04:29:52;1.67;;;1.13;;
46078;SDS011;31820;51.880;-0.518;2022-08-14T04:32:18;5.45;;;1.25;;
46078;SDS011;31820;51.880;-0.518;2022-08-14T04:34:46;2.60;;;1.30;;
46078;SDS011;31820;51.880;-0.518;2022-08-14T04:37:12;1.77;;;1.20;;
46078;SDS011;31820;51.880;-0.518;2022-08-14T04:40:06;2.50;;;1.20;;
46078;SDS011;31820;51.880;-0.518;2022-08-14T04:42:52;3.13;;;1.20;;
46078;SDS011;31820;51.880;-0.518;2022-08-14T04:45:37;4.13;;;1.50;;
46078;SDS011;31820;51.880;-0.518;2022-08-14T04:48:09;3.40;;;1.55;;
46078;SDS011;31820;51.880;-0.518;2022-08-14T04:50:42;2.03;;;1.38;;
46078;SDS011;31820;51.880;-0.518;2022-08-14T04:53:14;2.13;;;1.40;;
46078;SDS011;31820;51.880;-0.518;2022-08-14T04:55:42;2.33;;;1.52;;
46078;SDS011;31820;51.880;-0.518;2022-08-14T04:58:11;3.20;;;1.35;;
46078;SDS011;31820;51.880;-0.518;2022-08-14T05:00:37;2.72;;;1.52;;
46078;SDS011;31820;51.880;-0.518;2022-08-14T05:03:05;2.85;;;1.15;;
46078;SDS011;31820;51.880;-0.518;2022-08-14T05:08:04;3.13;;;1.63;;
46078;SDS011;31820;51.880;-0.518;2022-08-14T05:10:34;2.88;;;1.60;;
46078;SDS011;31820;51.880;-0.518;2022-08-14T05:15:26;3.83;;;1.60;;
46078;SDS011;31820;51.880;-0.518;2022-08-14T05:17:54;2.60;;;1.60;;
46078;SDS011;31820;51.880;-0.518;2022-08-14T05:20:20;2.90;;;1.63;;
46078;SDS011;31820;51.880;-0.518;2022-08-14T05:22:45;2.78;;;1.58;;
46078;SDS011;31820;51.880;-0.518;2022-08-14T05:25:11;2.30;;;1.17;;
46078;SDS011;31820;51.880;-0.518;2022-08-14T05:27:36;3.30;;;1.70;;
46078;SDS011;31820;51.880;-0.518;2022-08-14T05:30:05;2.75;;;1.20;;
46078;SDS011;31820;51.880;-0.518;2022-08-14T05:32:31;4.50;;;2.00;;
46078;SDS011;31820;51.880;-0.518;2022-08-14T05:34:57;4.05;;;2.03;;
46078;SDS011;31820;51.880;-0.518;2022-08-14T05:37:24;3.60;;;1.60;;
46078;SDS011;31820;51.880;-0.518;2022-08-14T05:39:51;3.97;;;1.45;;
46078;SDS011;31820;51.880;-0.518;2022-08-14T05:42:16;2.33;;;1.38;;
46078;SDS011;31820;51.880;-0.518;2022-08-14T05:44:42;2.15;;;1.33;;
46078;SDS011;31820;51.880;-0.518;2022-08-14T05:47:07;4.20;;;1.80;;
46078;SDS011;31820;51.880;-0.518;2022-08-14T05:49:33;4.30;;;1.50;;
46078;SDS011;31820;51.880;-0.518;2022-08-14T05:51:59;4.03;;;1.40;;
46078;SDS011;31820;51.880;-0.518;2022-08-14T05:54:25;2.90;;;1.33;;
46078;SDS011;31820;51.880;-0.518;2022-08-14T05:56:51;4.20;;;1.40;;
46078;SDS011;31820;51.880;-0.518;2022-08-14T05:59:16;3.20;;;1.60;;
46078;SDS011;31820;51.880;-0.518;2022-08-14T06:01:42;2.85;;;1.30;;
46078;SDS011;31820;51.880;-0.518;2022-08-14T06:04:07;3.00;;;1.23;;
46078;SDS011;31820;51.880;-0.518;2022-08-14T06:06:33;3.30;;;1.30;;
46078;SDS011;31820;51.880;-0.518;2022-08-14T06:08:58;5.43;;;1.35;;
46078;SDS011;31820;51.880;-0.518;2022-08-14T06:11:24;3.45;;;1.17;;
46078;SDS011;31820;51.880;-0.518;2022-08-14T06:13:51;2.15;;;1.27;;
46078;SDS011;31820;51.880;-0.518;2022-08-14T06:16:16;2.08;;;1.40;;
46078;SDS011;31820;51.880;-0.518;2022-08-14T06:18:42;3.90;;;1.58;;
46078;SDS011;31820;51.880;-0.518;2022-08-14T06:21:10;3.42;;;1.25;;
46078;SDS011;31820;51.880;-0.518;2022-08-14T06:23:35;7.38;;;2.00;;
46078;SDS011;31820;51.880;-0.518;2022-08-14T06:26:01;2.97;;;1.15;;
46078;SDS011;31820;51.880;-0.518;2022-08-14T06:28:26;2.35;;;1.08;;
46078;SDS011;31820;51.880;-0.518;2022-08-14T06:30:52;2.33;;;1.02;;
46078;SDS011;31820;51.880;-0.518;2022-08-14T06:33:18;3.60;;;1.13;;
46078;SDS011;31820;51.880;-0.518;2022-08-14T06:35:45;2.45;;;0.98;;
46078;SDS011;31820;51.880;-0.518;2022-08-14T06:40:47;4.13;;;1.20;;
46078;SDS011;31820;51.880;-0.518;2022-08-14T06:48:13;2.22;;;1.30;;
46078;SDS011;31820;51.880;-0.518;2022-08-14T06:50:44;3.70;;;1.38;;
46078;SDS011;31820;51.880;-0.518;2022-08-14T06:53:10;3.35;;;1.13;;
46078;SDS011;31820;51.880;-0.518;2022-08-14T06:55:38;3.53;;;1.38;;
46078;SDS011;31820;51.880;-0.518;2022-08-14T06:58:11;2.42;;;1.33;;
46078;SDS011;31820;51.880;-0.518;2022-08-14T07:00:37;3.42;;;1.05;;
46078;SDS011;31820;51.880;-0.518;2022-08-14T07:03:03;3.67;;;1.20;;
46078;SDS011;31820;51.880;-0.518;2022-08-14T07:05:47;3.10;;;1.10;;
46078;SDS011;31820;51.880;-0.518;2022-08-14T07:08:23;3.15;;;1.20;;
46078;SDS011;31820;51.880;-0.518;2022-08-14T07:10:53;3.50;;;1.25;;
46078;SDS011;31820;51.880;-0.518;2022-08-14T07:13:22;2.15;;;1.10;;
46078;SDS011;31820;51.880;-0.518;2022-08-14T07:15:49;2.80;;;1.17;;
46078;SDS011;31820;51.880;-0.518;2022-08-14T07:18:20;3.25;;;1.15;;
46078;SDS011;31820;51.880;-0.518;2022-08-14T07:20:50;3.85;;;1.15;;
46078;SDS011;31820;51.880;-0.518;2022-08-14T07:25:43;3.13;;;1.30;;
46078;SDS011;31820;51.880;-0.518;2022-08-14T07:30:36;2.30;;;0.90;;
46078;SDS011;31820;51.880;-0.518;2022-08-14T07:33:02;2.10;;;1.10;;
46078;SDS011;31820;51.880;-0.518;2022-08-14T07:35:28;4.50;;;1.03;;
46078;SDS011;31820;51.880;-0.518;2022-08-14T07:37:53;2.70;;;0.90;;
46078;SDS011;31820;51.880;-0.518;2022-08-14T07:40:19;5.93;;;1.30;;
46078;SDS011;31820;51.880;-0.518;2022-08-14T07:42:44;2.70;;;1.25;;
46078;SDS011;31820;51.880;-0.518;2022-08-14T07:45:10;4.87;;;1.10;;
46078;SDS011;31820;51.880;-0.518;2022-08-14T07:47:42;3.40;;;1.00;;
46078;SDS011;31820;51.880;-0.518;2022-08-14T07:50:12;2.40;;;1.30;;
46078;SDS011;31820;51.880;-0.518;2022-08-14T07:52:40;4.60;;;1.15;;
46078;SDS011;31820;51.880;-0.518;2022-08-14T07:55:11;6.65;;;1.30;;
46078;SDS011;31820;51.880;-0.518;2022-08-14T07:57:39;4.18;;;1.20;;
46078;SDS011;31820;51.880;-0.518;2022-08-14T08:00:13;5.40;;;1.48;;
46078;SDS011;31820;51.880;-0.518;2022-08-14T08:02:42;3.70;;;1.10;;
46078;SDS011;31820;51.880;-0.518;2022-08-14T08:05:10;3.13;;;0.95;;
46078;SDS011;31820;51.880;-0.518;2022-08-14T08:07:36;5.38;;;1.33;;
46078;SDS011;31820;51.880;-0.518;2022-08-14T08:10:08;2.20;;;1.00;;
46078;SDS011;31820;51.880;-0.518;2022-08-14T08:12:54;4.20;;;1.52;;
46078;SDS011;31820;51.880;-0.518;2022-08-14T08:15:21;5.72;;;1.30;;
46078;SDS011;31820;51.880;-0.518;2022-08-14T08:20:17;5.50;;;1.30;;
46078;SDS011;31820;51.880;-0.518;2022-08-14T08:22:44;1.52;;;1.00;;
46078;SDS011;31820;51.880;-0.518;2022-08-14T08:27:36;4.15;;;1.38;;
46078;SDS011;31820;51.880;-0.518;2022-08-14T08:30:05;2.47;;;0.90;;
46078;SDS011;31820;51.880;-0.518;2022-08-14T08:32:41;3.17;;;1.20;;
46078;SDS011;31820;51.880;-0.518;2022-08-14T08:35:24;2.72;;;1.00;;
46078;SDS011;31820;51.880;-0.518;2022-08-14T08:37:51;3.97;;;1.00;;
46078;SDS011;31820;51.880;-0.518;2022-08-14T08:40:23;4.95;;;1.23;;
46078;SDS011;31820;51.880;-0.518;2022-08-14T08:42:52;2.38;;;1.10;;
46078;SDS011;31820;51.880;-0.518;2022-08-14T08:45:19;3.23;;;1.20;;
46078;SDS011;31820;51.880;-0.518;2022-08-14T08:47:45;1.88;;;1.13;;
46078;SDS011;31820;51.880;-0.518;2022-08-14T08:50:22;4.20;;;1.00;;
46078;SDS011;31820;51.880;-0.518;2022-08-14T08:53:01;4.35;;;1.10;;
46078;SDS011;31820;51.880;-0.518;2022-08-14T08:55:33;4.72;;;1.10;;
46078;SDS011;31820;51.880;-0.518;2022-08-14T08:58:09;1.90;;;1.10;;
46078;SDS011;31820;51.880;-0.518;2022-08-14T09:00:44;6.07;;;1.73;;
46078;SDS011;31820;51.880;-0.518;2022-08-14T09:03:13;2.95;;;1.50;;
46078;SDS011;31820;51.880;-0.518;2022-08-14T09:05:52;4.70;;;1.33;;
46078;SDS011;31820;51.880;-0.518;2022-08-14T09:08:31;2.33;;;1.50;;
46078;SDS011;31820;51.880;-0.518;2022-08-14T09:11:05;3.95;;;1.40;;
46078;SDS011;31820;51.880;-0.518;2022-08-14T09:13:36;3.67;;;1.27;;
46078;SDS011;31820;51.880;-0.518;2022-08-14T09:16:02;2.88;;;1.30;;
46078;SDS011;31820;51.880;-0.518;2022-08-14T09:18:28;3.50;;;1.50;;
46078;SDS011;31820;51.880;-0.518;2022-08-14T09:20:54;2.08;;;1.45;;
46078;SDS011;31820;51.880;-0.518;2022-08-14T09:23:21;4.15;;;1.30;;
46078;SDS011;31820;51.880;-0.518;2022-08-14T09:25:48;2.80;;;1.58;;
46078;SDS011;31820;51.880;-0.518;2022-08-14T09:28:16;5.20;;;1.70;;
46078;SDS011;31820;51.880;-0.518;2022-08-14T09:30:50;3.80;;;1.15;;
46078;SDS011;31820;51.880;-0.518;2022-08-14T09:33:25;2.60;;;1.35;;
46078;SDS011;31820;51.880;-0.518;2022-08-14T09:36:48;3.40;;;1.63;;
46078;SDS011;31820;51.880;-0.518;2022-08-14T09:42:06;2.30;;;1.55;;
46078;SDS011;31820;51.880;-0.518;2022-08-14T09:47:11;4.05;;;1.45;;
46078;SDS011;31820;51.880;-0.518;2022-08-14T09:49:39;3.80;;;1.38;;
46078;SDS011;31820;51.880;-0.518;2022-08-14T09:52:10;3.22;;;1.67;;
46078;SDS011;31820;51.880;-0.518;2022-08-14T09:54:47;2.25;;;1.40;;
46078;SDS011;31820;51.880;-0.518;2022-08-14T09:57:25;2.17;;;1.30;;
46078;SDS011;31820;51.880;-0.518;2022-08-14T09:59:54;5.90;;;1.80;;
46078;SDS011;31820;51.880;-0.518;2022-08-14T10:02:29;3.42;;;1.50;;
46078;SDS011;31820;51.880;-0.518;2022-08-14T10:07:44;5.95;;;1.90;;
46078;SDS011;31820;51.880;-0.518;2022-08-14T10:10:25;5.35;;;1.88;;
46078;SDS011;31820;51.880;-0.518;2022-08-14T10:13:23;3.42;;;1.70;;
46078;SDS011;31820;51.880;-0.518;2022-08-14T10:15:49;2.92;;;1.42;;
46078;SDS011;31820;51.880;-0.518;2022-08-14T10:18:17;3.40;;;1.45;;
46078;SDS011;31820;51.880;-0.518;2022-08-14T10:20:53;5.63;;;1.45;;
46078;SDS011;31820;51.880;-0.518;2022-08-14T10:23:38;3.50;;;1.40;;
46078;SDS011;31820;51.880;-0.518;2022-08-14T10:26:08;5.53;;;1.98;;
46078;SDS011;31820;51.880;-0.518;2022-08-14T10:28:42;3.50;;;1.23;;
46078;SDS011;31820;51.880;-0.518;2022-08-14T10:31:23;2.45;;;1.30;;
46078;SDS011;31820;51.880;-0.518;2022-08-14T10:34:28;3.13;;;1.10;;
46078;SDS011;31820;51.880;-0.518;2022-08-14T10:36:44;2.45;;;1.10;;
46078;SDS011;31820;51.880;-0.518;2022-08-14T10:41:46;3.00;;;1.40;;
46078;SDS011;31820;51.880;-0.518;2022-08-14T10:46:44;3.42;;;0.85;;
46078;SDS011;31820;51.880;-0.518;2022-08-14T10:51:53;8.30;;;1.15;;
46078;SDS011;31820;51.880;-0.518;2022-08-14T10:54:29;2.72;;;0.90;;
46078;SDS011;31820;51.880;-0.518;2022-08-14T10:56:57;3.33;;;1.10;;
46078;SDS011;31820;51.880;-0.518;2022-08-14T10:59:42;3.03;;;0.90;;
46078;SDS011;31820;51.880;-0.518;2022-08-14T11:02:17;1.13;;;0.90;;
46078;SDS011;31820;51.880;-0.518;2022-08-14T11:05:11;2.75;;;0.80;;
46078;SDS011;31820;51.880;-0.518;2022-08-14T11:10:23;1.75;;;0.85;;
46078;SDS011;31820;51.880;-0.518;2022-08-14T11:12:53;1.30;;;0.90;;
46078;SDS011;31820;51.880;-0.518;2022-08-14T11:15:24;1.73;;;0.73;;
46078;SDS011;31820;51.880;-0.518;2022-08-14T11:17:53;4.18;;;0.85;;
46078;SDS011;31820;51.880;-0.518;2022-08-14T11:20:24;5.57;;;0.98;;
46078;SDS011;31820;51.880;-0.518;2022-08-14T11:22:53;2.53;;;1.08;;
46078;SDS011;31820;51.880;-0.518;2022-08-14T11:25:21;1.83;;;0.80;;
46078;SDS011;31820;51.880;-0.518;2022-08-14T11:27:49;1.45;;;0.98;;
46078;SDS011;31820;51.880;-0.518;2022-08-14T11:30:18;3.00;;;1.13;;
46078;SDS011;31820;51.880;-0.518;2022-08-14T11:32:46;1.77;;;0.93;;
46078;SDS011;31820;51.880;-0.518;2022-08-14T11:40:16;1.10;;;0.80;;
46078;SDS011;31820;51.880;-0.518;2022-08-14T11:42:44;2.35;;;0.98;;
46078;SDS011;31820;51.880;-0.518;2022-08-14T11:45:10;4.32;;;1.25;;
46078;SDS011;31820;51.880;-0.518;2022-08-14T11:47:36;1.60;;;0.90;;
46078;SDS011;31820;51.880;-0.518;2022-08-14T11:50:12;2.33;;;0.85;;
46078;SDS011;31820;51.880;-0.518;2022-08-14T11:52:41;3.08;;;1.15;;
46078;SDS011;31820;51.880;-0.518;2022-08-14T11:55:09;2.53;;;1.00;;
46078;SDS011;31820;51.880;-0.518;2022-08-14T11:57:36;1.98;;;0.73;;
46078;SDS011;31820;51.880;-0.518;2022-08-14T12:00:05;1.25;;;0.52;;
46078;SDS011;31820;51.880;-0.518;2022-08-14T12:02:34;1.80;;;0.70;;
46078;SDS011;31820;51.880;-0.518;2022-08-14T12:05:00;1.52;;;1.10;;
46078;SDS011;31820;51.880;-0.518;2022-08-14T12:07:26;2.28;;;1.15;;
46078;SDS011;31820;51.880;-0.518;2022-08-14T12:09:53;2.80;;;1.20;;
46078;SDS011;31820;51.880;-0.518;2022-08-14T12:12:21;2.20;;;0.70;;
46078;SDS011;31820;51.880;-0.518;2022-08-14T12:17:21;1.27;;;1.00;;
46078;SDS011;31820;51.880;-0.518;2022-08-14T12:22:42;2.95;;;0.45;;
46078;SDS011;31820;51.880;-0.518;2022-08-14T12:25:13;2.30;;;0.63;;
46078;SDS011;31820;51.880;-0.518;2022-08-14T12:27:44;1.60;;;0.88;;
46078;SDS011;31820;51.880;-0.518;2022-08-14T12:30:15;2.92;;;1.00;;
46078;SDS011;31820;51.880;-0.518;2022-08-14T12:32:50;1.65;;;0.75;;
46078;SDS011;31820;51.880;-0.518;2022-08-14T12:35:16;1.87;;;0.83;;
46078;SDS011;31820;51.880;-0.518;2022-08-14T12:37:49;2.23;;;1.10;;
46078;SDS011;31820;51.880;-0.518;2022-08-14T12:40:16;2.47;;;1.08;;
46078;SDS011;31820;51.880;-0.518;2022-08-14T12:42:47;1.17;;;0.80;;
46078;SDS011;31820;51.880;-0.518;2022-08-14T12:45:13;3.78;;;1.13;;
46078;SDS011;31820;51.880;-0.518;2022-08-14T12:47:39;3.17;;;0.90;;
46078;SDS011;31820;51.880;-0.518;2022-08-14T12:50:06;4.38;;;1.00;;
46078;SDS011;31820;51.880;-0.518;2022-08-14T12:52:35;1.65;;;0.73;;
46078;SDS011;31820;51.880;-0.518;2022-08-14T12:55:05;1.00;;;0.68;;
46078;SDS011;31820;51.880;-0.518;2022-08-14T12:57:40;3.03;;;1.10;;
46078;SDS011;31820;51.880;-0.518;2022-08-14T13:00:15;1.25;;;0.80;;
46078;SDS011;31820;51.880;-0.518;2022-08-14T13:02:45;1.98;;;0.70;;
46078;SDS011;31820;51.880;-0.518;2022-08-14T13:05:16;4.45;;;1.40;;
46078;SDS011;31820;51.880;-0.518;2022-08-14T13:07:48;2.25;;;0.98;;
46078;SDS011;31820;51.880;-0.518;2022-08-14T13:10:16;2.10;;;0.90;;
46078;SDS011;31820;51.880;-0.518;2022-08-14T13:12:45;2.03;;;1.00;;
46078;SDS011;31820;51.880;-0.518;2022-08-14T13:15:12;2.40;;;0.70;;
46078;SDS011;31820;51.880;-0.518;2022-08-14T13:17:48;2.65;;;1.20;;
46078;SDS011;31820;51.880;-0.518;2022-08-14T13:20:17;3.03;;;1.10;;
46078;SDS011;31820;51.880;-0.518;2022-08-14T13:22:45;2.00;;;0.80;;
46078;SDS011;31820;51.880;-0.518;2022-08-14T13:25:12;1.00;;;0.80;;
46078;SDS011;31820;51.880;-0.518;2022-08-14T13:27:41;2.72;;;1.00;;
46078;SDS011;31820;51.880;-0.518;2022-08-14T13:30:09;2.53;;;0.80;;
46078;SDS011;31820;51.880;-0.518;2022-08-14T13:32:36;1.17;;;0.65;;
46078;SDS011;31820;51.880;-0.518;2022-08-14T13:35:08;0.95;;;0.70;;
46078;SDS011;31820;51.880;-0.518;2022-08-14T13:37:34;3.42;;;0.70;;
46078;SDS011;31820;51.880;-0.518;2022-08-14T13:40:00;0.90;;;0.70;;
46078;SDS011;31820;51.880;-0.518;2022-08-14T13:42:26;2.70;;;0.77;;
46078;SDS011;31820;51.880;-0.518;2022-08-14T13:44:53;1.50;;;0.68;;
46078;SDS011;31820;51.880;-0.518;2022-08-14T13:47:20;4.05;;;0.80;;
46078;SDS011;31820;51.880;-0.518;2022-08-14T13:49:53;2.85;;;0.95;;
46078;SDS011;31820;51.880;-0.518;2022-08-14T13:52:21;3.10;;;1.00;;
46078;SDS011;31820;51.880;-0.518;2022-08-14T13:54:49;4.53;;;1.05;;
46078;SDS011;31820;51.880;-0.518;2022-08-14T13:57:17;2.63;;;1.10;;
46078;SDS011;31820;51.880;-0.518;2022-08-14T13:59:45;2.40;;;0.60;;
46078;SDS011;31820;51.880;-0.518;2022-08-14T14:02:13;2.75;;;0.95;;
46078;SDS011;31820;51.880;-0.518;2022-08-14T14:04:43;1.15;;;0.85;;
46078;SDS011;31820;51.880;-0.518;2022-08-14T14:07:10;3.10;;;1.20;;
46078;SDS011;31820;51.880;-0.518;2022-08-14T14:09:39;1.77;;;0.70;;
46078;SDS011;31820;51.880;-0.518;2022-08-14T14:12:06;1.50;;;1.10;;
46078;SDS011;31820;51.880;-0.518;2022-08-14T14:14:33;2.65;;;0.90;;
46078;SDS011;31820;51.880;-0.518;2022-08-14T14:17:02;2.58;;;0.90;;
46078;SDS011;31820;51.880;-0.518;2022-08-14T14:19:30;2.65;;;1.08;;
46078;SDS011;31820;51.880;-0.518;2022-08-14T14:21:59;1.70;;;0.82;;
46078;SDS011;31820;51.880;-0.518;2022-08-14T14:24:25;1.10;;;0.70;;
46078;SDS011;31820;51.880;-0.518;2022-08-14T14:26:51;0.90;;;0.73;;
46078;SDS011;31820;51.880;-0.518;2022-08-14T14:29:18;2.22;;;0.80;;
46078;SDS011;31820;51.880;-0.518;2022-08-14T14:31:45;1.40;;;0.73;;
46078;SDS011;31820;51.880;-0.518;2022-08-14T14:34:13;2.60;;;1.00;;
46078;SDS011;31820;51.880;-0.518;2022-08-14T14:36:42;1.73;;;0.80;;
46078;SDS011;31820;51.880;-0.518;2022-08-14T14:39:08;2.17;;;0.80;;
46078;SDS011;31820;51.880;-0.518;2022-08-14T14:41:38;1.27;;;0.67;;
46078;SDS011;31820;51.880;-0.518;2022-08-14T14:44:08;2.15;;;0.88;;
46078;SDS011;31820;51.880;-0.518;2022-08-14T14:46:40;2.55;;;1.05;;
46078;SDS011;31820;51.880;-0.518;2022-08-14T14:49:08;1.42;;;0.90;;
46078;SDS011;31820;51.880;-0.518;2022-08-14T14:51:38;1.73;;;0.85;;
46078;SDS011;31820;51.880;-0.518;2022-08-14T14:54:06;1.70;;;0.80;;
46078;SDS011;31820;51.880;-0.518;2022-08-14T14:56:32;1.52;;;0.80;;
46078;SDS011;31820;51.880;-0.518;2022-08-14T14:58:58;1.47;;;0.70;;
46078;SDS011;31820;51.880;-0.518;2022-08-14T15:01:24;1.98;;;1.08;;
46078;SDS011;31820;51.880;-0.518;2022-08-14T15:03:50;1.40;;;0.70;;
46078;SDS011;31820;51.880;-0.518;2022-08-14T15:06:22;2.35;;;0.70;;
46078;SDS011;31820;51.880;-0.518;2022-08-14T15:08:49;2.38;;;0.77;;
46078;SDS011;31820;51.880;-0.518;2022-08-14T15:11:17;2.95;;;0.90;;
46078;SDS011;31820;51.880;-0.518;2022-08-14T15:13:42;1.80;;;0.80;;
46078;SDS011;31820;51.880;-0.518;2022-08-14T15:16:09;4.25;;;1.10;;
46078;SDS011;31820;51.880;-0.518;2022-08-14T15:18:35;1.65;;;0.98;;
46078;SDS011;31820;51.880;-0.518;2022-08-14T15:21:01;3.00;;;0.93;;
46078;SDS011;31820;51.880;-0.518;2022-08-14T15:23:27;1.03;;;0.77;;
46078;SDS011;31820;51.880;-0.518;2022-08-14T15:25:54;2.67;;;0.88;;
46078;SDS011;31820;51.880;-0.518;2022-08-14T15:28:20;1.20;;;0.90;;
46078;SDS011;31820;51.880;-0.518;2022-08-14T15:30:47;2.17;;;0.88;;
46078;SDS011;31820;51.880;-0.518;2022-08-14T15:33:14;1.90;;;0.90;;
46078;SDS011;31820;51.880;-0.518;2022-08-14T15:35:40;2.00;;;0.73;;
46078;SDS011;31820;51.880;-0.518;2022-08-14T15:38:06;1.67;;;1.30;;
46078;SDS011;31820;51.880;-0.518;2022-08-14T15:40:38;3.03;;;1.33;;